createdAt,value
2022-09-24T00:04:27.784Z,12.61
2022-09-24T00:14:29.971Z,14.05
2022-09-24T00:24:50.573Z,12.89
2022-09-24T00:34:53.377Z,9.83
2022-09-24T00:44:55.919Z,8.12
2022-09-24T00:54:57.784Z,9.50
2022-09-24T01:05:00.052Z,12.40
2022-09-24T01:15:08.426Z,13.56
2022-09-24T01:25:22.946Z,12.16
2022-09-24T01:35:28.866Z,9.11
2022-09-24T01:45:32.159Z,7.42
2022-09-24T01:55:38.599Z,6.28
2022-09-24T02:05:47.158Z,8.29
2022-09-24T02:15:51.146Z,11.46
2022-09-24T02:25:58.724Z,12.79
2022-09-24T02:36:00.514Z,11.47
2022-09-24T02:46:02.627Z,8.26
2022-09-24T02:56:04.634Z,6.61
2022-09-24T03:06:06.611Z,5.58
2022-09-24T03:16:08.403Z,7.57
2022-09-24T03:26:10.628Z,10.90
2022-09-24T03:36:16.905Z,12.23
2022-09-24T03:46:19.528Z,11.04
2022-09-24T03:56:21.389Z,7.97
2022-09-24T04:06:25.956Z,6.24
2022-09-24T04:16:28.076Z,5.16
2022-09-24T04:26:29.915Z,7.18
2022-09-24T04:36:31.675Z,10.74
2022-09-24T04:46:34.558Z,12.34
2022-09-24T04:56:36.521Z,11.50
2022-09-24T05:06:38.167Z,8.88
2022-09-24T05:16:40.012Z,7.76
2022-09-24T05:37:19.754Z,14.04
2022-09-24T05:47:21.505Z,14.11
2022-09-24T05:57:23.387Z,12.34
2022-09-24T06:07:25.178Z,11.58
2022-09-24T06:17:27.336Z,13.46
2022-09-24T06:27:29.116Z,14.77
2022-09-24T06:37:30.791Z,12.87
2022-09-24T06:47:32.492Z,12.38
2022-09-24T06:57:34.291Z,13.88
2022-09-24T07:07:37.783Z,15.74
2022-09-24T07:17:39.531Z,16.44
2022-09-24T07:27:41.350Z,17.52
2022-09-24T07:37:43.113Z,18.81
2022-09-24T07:47:44.871Z,19.61
2022-09-24T07:57:48.033Z,21.25
2022-09-24T08:07:53.614Z,20.90
2022-09-24T08:18:00.494Z,20.65
2022-09-24T08:28:03.294Z,20.84
2022-09-24T08:38:05.027Z,20.96
2022-09-24T08:48:15.437Z,21.20
2022-09-24T08:58:17.233Z,21.82
2022-09-24T09:08:50.050Z,22.00
2022-09-24T09:18:48.532Z,21.86
2022-09-24T09:28:50.902Z,21.53
2022-09-24T09:39:16.030Z,21.20
2022-09-24T09:49:18.090Z,20.88
2022-09-24T09:59:25.713Z,20.32
2022-09-24T10:09:29.232Z,19.53
2022-09-24T10:19:32.888Z,18.89
2022-09-24T10:29:53.155Z,18.53
2022-09-24T10:40:02.234Z,18.34
2022-09-24T10:50:10.554Z,18.16
2022-09-24T11:00:20.263Z,18.12
2022-09-24T11:10:28.111Z,17.96
2022-09-24T11:20:37.760Z,17.85
2022-09-24T11:30:58.772Z,17.51
2022-09-24T11:41:12.841Z,17.20
2022-09-24T11:51:21.032Z,17.10
2022-09-24T12:01:25.286Z,17.08
2022-09-24T12:11:33.284Z,17.09
2022-09-24T12:21:38.649Z,17.07
2022-09-24T12:32:14.052Z,17.03
2022-09-24T12:42:17.504Z,17.03
2022-09-24T12:52:24.482Z,16.92
2022-09-24T13:02:28.276Z,16.64
2022-09-24T13:12:33.293Z,16.39
2022-09-24T13:22:36.745Z,16.32
2022-09-24T13:32:59.208Z,16.30
2022-09-24T13:43:23.970Z,16.21
2022-09-24T13:53:25.689Z,16.06
2022-09-24T14:03:34.803Z,15.96
2022-09-24T14:13:45.925Z,15.91
2022-09-24T14:23:58.764Z,15.90
2022-09-24T14:34:00.603Z,15.85
2022-09-24T14:44:05.312Z,15.72
2022-09-24T14:54:21.680Z,15.64
2022-09-24T15:04:27.565Z,15.62
2022-09-24T15:14:33.091Z,15.49
2022-09-24T15:24:34.865Z,15.27
2022-09-24T15:34:37.964Z,14.87
2022-09-24T15:44:40.096Z,14.30
2022-09-24T15:54:42.038Z,13.58
2022-09-24T16:04:44.200Z,12.84
2022-09-24T16:14:46.698Z,14.73
2022-09-24T16:24:48.486Z,17.39
2022-09-24T16:34:50.429Z,16.59
2022-09-24T16:44:52.698Z,13.90
2022-09-24T16:54:55.969Z,12.39
2022-09-24T17:04:59.791Z,13.88
2022-09-24T17:15:03.543Z,16.49
2022-09-24T17:25:06.188Z,15.53
2022-09-24T17:35:08.642Z,12.76
2022-09-24T17:45:10.680Z,11.15
2022-09-24T17:55:12.584Z,12.27
2022-09-24T18:05:14.629Z,14.69
2022-09-24T18:15:16.534Z,15.66
2022-09-24T18:25:18.847Z,14.31
2022-09-24T18:35:20.800Z,11.56
2022-09-24T18:45:24.350Z,9.99
2022-09-24T18:55:26.043Z,11.29
2022-09-24T19:05:28.934Z,13.86
2022-09-24T19:15:31.227Z,14.97
2022-09-24T19:25:34.176Z,13.83
2022-09-24T19:35:36.870Z,11.23
2022-09-24T19:45:38.880Z,9.79
2022-09-24T19:55:41.792Z,11.23
2022-09-24T20:05:45.433Z,13.98
2022-09-24T20:15:47.375Z,15.15
2022-09-24T20:26:11.424Z,14.00
2022-09-24T20:36:16.504Z,11.45
2022-09-24T20:46:22.169Z,10.10
2022-09-24T20:56:24.282Z,11.49
2022-09-24T21:06:26.304Z,14.07
2022-09-24T21:16:30.064Z,15.16
2022-09-24T21:26:33.472Z,14.28
2022-09-24T21:36:42.905Z,11.77
2022-09-24T21:46:46.375Z,10.43
2022-09-24T21:56:48.487Z,11.90
2022-09-24T22:06:51.374Z,14.52
2022-09-24T22:16:53.201Z,15.55
2022-09-24T22:26:55.093Z,14.21
2022-09-24T22:36:57.687Z,11.43
2022-09-24T22:46:59.617Z,9.72
2022-09-24T22:57:01.355Z,10.65
2022-09-24T23:07:03.277Z,12.69
2022-09-24T23:17:05.022Z,13.41
2022-09-24T23:27:06.801Z,12.11
2022-09-24T23:37:10.860Z,9.40
2022-09-24T23:47:12.375Z,7.88
2022-09-24T23:57:14.028Z,6.86
